Kezdőlap
METAR-TAF:

METAR-TAF

Repülőterek :

Denison Municipal Airport

Denison, Iowa, Amerikai Egyesült Államok

földrajzi szélesség: 41-59N, földrajzi hosszúság: 095-23W, magasság: 388 m

Jelenlegi meteorológiai megfigyelések

A jelentés 15 perccel ezelõtt készült, 10:15 UTC
Északkeleti szél 5 kt
Hőmérséklet 0°C
Páratartalom 100%
Légköri nyomás 1017 hPa
Látótávolság: 11.3 km
Derült ég

METAR: KDNS 231015Z AUTO 05005KT 7SM CLR 00/00 A3002 RMK AO2

Idő: 05:30 (10:30 UTC)


TAF: hiányzik

Meteorológiai megfigyelések és előrejelzések több, mint 4000 repülőtéren (METAR és TAF jelentéseket).

A térképen piros és sárga pontok jelzik az elérhető meteorológiai állomásokat.

Mozgassa az egeret a pont fölött, hogy megjelenjen az állomás neve.

Azután kattintson az időjárási megfigyelések és előrejelzések megtekintéséhez.

A térkép megváltoztatása: kattintson a fekete keresztel jelölt zöld gombra ráközelítéshez, a vonallal jelölt zöld gombra távolításhoz, vagy a zöld nyilakra a szomszédos térképek eléréséhez.


METAR-TAF: